createdAt,value
2018-09-01T00:02:23.034Z,90.40
2018-09-01T00:04:52.194Z,90.50
2018-09-01T00:07:21.546Z,90.60
2018-09-01T00:09:51.532Z,90.60
2018-09-01T00:12:20.863Z,90.40
2018-09-01T00:14:50.877Z,90.20
2018-09-01T00:17:26.283Z,90.10
2018-09-01T00:19:55.415Z,90.20
2018-09-01T00:22:26.713Z,90.20
2018-09-01T00:24:56.949Z,90.30
2018-09-01T00:27:26.560Z,90.30
2018-09-01T00:29:55.500Z,90.40
2018-09-01T00:32:24.393Z,90.30
2018-09-01T00:34:54.356Z,90.30
2018-09-01T00:37:28.669Z,90.30
2018-09-01T00:39:57.555Z,90.20
2018-09-01T00:42:26.571Z,90.20
2018-09-01T00:45:02.234Z,90.20
2018-09-01T00:47:32.239Z,90.10
2018-09-01T00:50:07.153Z,90.00
2018-09-01T00:52:37.192Z,90.00
2018-09-01T00:55:10.836Z,90.00
2018-09-01T00:57:40.732Z,90.10
2018-09-01T01:00:09.801Z,90.10
2018-09-01T01:02:38.596Z,90.20
2018-09-01T01:05:09.099Z,90.10
2018-09-01T01:07:38.363Z,90.30
2018-09-01T01:10:07.631Z,90.40
2018-09-01T01:12:37.361Z,90.50
2018-09-01T01:15:08.375Z,90.60
2018-09-01T01:17:41.207Z,90.70
2018-09-01T01:20:10.429Z,90.90
2018-09-01T01:22:40.715Z,91.00
2018-09-01T01:25:11.527Z,91.10
2018-09-01T01:27:42.693Z,91.10
2018-09-01T01:30:12.755Z,91.10
2018-09-01T01:32:43.262Z,91.20
2018-09-01T01:35:13.032Z,91.20
2018-09-01T01:37:44.494Z,91.40
2018-09-01T01:40:14.601Z,91.60
2018-09-01T01:42:44.472Z,91.70
2018-09-01T01:45:13.491Z,91.90
2018-09-01T01:47:48.456Z,92.00
2018-09-01T01:50:19.014Z,92.00
2018-09-01T01:52:48.912Z,92.00
2018-09-01T01:55:18.907Z,92.20
2018-09-01T01:59:13.452Z,92.30
2018-09-01T02:01:42.954Z,92.50
2018-09-01T02:04:13.696Z,92.60
2018-09-01T02:06:43.431Z,92.80
2018-09-01T02:09:13.175Z,93.00
2018-09-01T02:11:41.895Z,93.00
2018-09-01T02:14:11.669Z,92.70
2018-09-01T02:16:41.529Z,92.50
2018-09-01T02:19:11.206Z,92.50
2018-09-01T02:21:40.287Z,92.50
2018-09-01T02:27:21.324Z,92.40
2018-09-01T02:29:51.179Z,92.50
2018-09-01T02:32:21.296Z,93.00
2018-09-01T02:34:53.445Z,93.30
2018-09-01T02:37:22.251Z,93.40
2018-09-01T02:39:51.065Z,93.50
2018-09-01T02:45:01.480Z,93.80
2018-09-01T02:47:30.205Z,93.90
2018-09-01T02:49:58.944Z,94.00
2018-09-01T02:52:28.742Z,93.90
2018-09-01T02:54:57.631Z,93.80
2018-09-01T02:57:26.854Z,93.80
2018-09-01T02:59:55.553Z,93.70
2018-09-01T03:02:31.395Z,93.70
2018-09-01T03:05:00.276Z,94.10
2018-09-01T03:07:29.576Z,94.30
2018-09-01T03:09:59.013Z,94.70
2018-09-01T03:12:29.105Z,95.10
2018-09-01T03:14:57.701Z,95.70
2018-09-01T03:17:28.470Z,95.60
2018-09-01T03:19:59.512Z,95.70
2018-09-01T03:22:28.895Z,96.00
2018-09-01T03:24:58.578Z,96.20
2018-09-01T03:27:27.939Z,96.40
2018-09-01T03:29:57.213Z,96.50
2018-09-01T03:32:25.904Z,96.60
2018-09-01T03:34:55.583Z,96.70
2018-09-01T03:37:25.283Z,96.90
2018-09-01T03:39:55.242Z,97.30
2018-09-01T03:42:24.852Z,97.50
2018-09-01T03:44:53.617Z,97.70
2018-09-01T03:47:23.986Z,97.80
2018-09-01T03:49:52.776Z,98.20
2018-09-01T03:52:21.460Z,98.00
2018-09-01T03:54:50.524Z,98.20
2018-09-01T03:57:20.288Z,98.10
2018-09-01T03:59:51.998Z,98.20
2018-09-01T04:02:21.803Z,98.20
2018-09-01T04:04:50.690Z,98.30
2018-09-01T04:07:19.388Z,98.50
2018-09-01T04:09:48.562Z,98.60
2018-09-01T04:12:17.330Z,98.70
2018-09-01T04:14:46.451Z,98.90
2018-09-01T04:17:15.811Z,98.90
2018-09-01T04:19:44.987Z,99.20
2018-09-01T04:22:14.552Z,99.00
2018-09-01T04:24:43.250Z,98.90
2018-09-01T04:27:43.251Z,98.90
2018-09-01T04:30:14.571Z,98.90
2018-09-01T04:32:44.718Z,98.80
2018-09-01T04:35:15.477Z,98.80
2018-09-01T04:37:45.042Z,98.80
2018-09-01T04:40:14.481Z,98.70
2018-09-01T04:42:43.483Z,98.60
2018-09-01T04:45:12.258Z,98.40
2018-09-01T04:47:41.004Z,98.40
2018-09-01T04:50:09.998Z,97.90
2018-09-01T04:52:40.117Z,97.70
2018-09-01T04:55:09.875Z,97.40
2018-09-01T04:57:38.627Z,97.60
2018-09-01T05:00:07.759Z,97.50
2018-09-01T05:02:36.498Z,97.40
2018-09-01T05:05:05.142Z,97.40
2018-09-01T05:07:33.816Z,97.10
2018-09-01T05:10:02.775Z,97.20
2018-09-01T05:12:31.741Z,97.10
2018-09-01T05:15:00.764Z,97.10
2018-09-01T05:17:30.352Z,97.10
2018-09-01T05:19:59.015Z,97.30
2018-09-01T05:22:27.696Z,97.20
2018-09-01T05:24:56.382Z,96.80
2018-09-01T05:27:25.004Z,97.00
2018-09-01T05:29:53.950Z,97.00
2018-09-01T05:32:23.153Z,97.00
2018-09-01T05:34:52.038Z,97.00
2018-09-01T05:37:20.652Z,97.00
2018-09-01T05:39:49.262Z,96.90
2018-09-01T05:42:17.859Z,96.90
2018-09-01T05:44:46.635Z,97.00
2018-09-01T05:47:15.360Z,97.00
2018-09-01T05:49:43.954Z,96.90
2018-09-01T05:52:12.792Z,96.90
2018-09-01T05:54:42.080Z,96.70
2018-09-01T05:57:11.237Z,96.70
2018-09-01T05:59:40.497Z,96.70
2018-09-01T06:02:09.601Z,96.80
2018-09-01T06:04:38.331Z,96.90
2018-09-01T06:07:07.022Z,96.60
2018-09-01T06:09:35.691Z,96.70
2018-09-01T06:12:05.340Z,96.90
2018-09-01T06:14:34.034Z,97.00
2018-09-01T06:17:02.482Z,97.10
2018-09-01T06:19:31.270Z,97.00
2018-09-01T06:21:59.706Z,96.90
2018-09-01T06:24:28.161Z,97.00
2018-09-01T06:26:57.008Z,97.00
2018-09-01T06:29:25.462Z,97.20
2018-09-01T06:31:57.765Z,97.20
2018-09-01T06:34:26.655Z,97.20
2018-09-01T06:36:58.814Z,97.10
2018-09-01T06:42:43.625Z,97.00
2018-09-01T06:45:12.417Z,96.90
2018-09-01T06:47:40.858Z,97.00
2018-09-01T06:50:10.933Z,97.10
2018-09-01T06:52:39.930Z,97.00
2018-09-01T06:55:08.381Z,96.80
2018-09-01T06:57:36.853Z,96.70
2018-09-01T07:00:05.638Z,96.80
2018-09-01T07:02:34.090Z,96.90
2018-09-01T07:05:02.848Z,96.70
2018-09-01T07:07:31.666Z,96.80
2018-09-01T07:10:00.113Z,96.90
2018-09-01T07:12:29.220Z,96.80
2018-09-01T07:14:58.270Z,97.00
2018-09-01T07:17:26.711Z,97.00
2018-09-01T07:19:55.957Z,97.00
2018-09-01T07:22:24.904Z,97.00
2018-09-01T07:24:53.399Z,97.00
2018-09-01T07:27:21.824Z,96.80
2018-09-01T07:29:50.620Z,96.80
2018-09-01T07:32:19.388Z,96.60
2018-09-01T07:34:47.828Z,96.70
2018-09-01T07:37:16.660Z,97.00
2018-09-01T07:39:45.074Z,96.80
2018-09-01T07:42:13.507Z,97.00
2018-09-01T07:44:41.989Z,96.90
2018-09-01T07:47:11.617Z,96.90
2018-09-01T07:49:40.048Z,97.00
2018-09-01T07:52:08.861Z,96.90
2018-09-01T07:54:37.750Z,96.80
2018-09-01T07:57:06.310Z,97.30
2018-09-01T07:59:34.769Z,96.80
2018-09-01T08:02:03.292Z,96.90
2018-09-01T08:04:32.125Z,96.50
2018-09-01T08:07:00.662Z,96.40
2018-09-01T08:09:29.468Z,96.40
